createdAt,value
2019-05-29T00:00:50.998Z,1002.46
2019-05-29T00:01:50.958Z,1002.48
2019-05-29T00:02:50.966Z,1002.41
2019-05-29T00:03:50.988Z,1002.46
2019-05-29T00:04:50.926Z,1002.45
2019-05-29T00:05:50.936Z,1002.45
2019-05-29T00:06:50.965Z,1002.48
2019-05-29T00:07:50.905Z,1002.48
2019-05-29T00:08:50.912Z,1002.46
2019-05-29T00:09:50.869Z,1002.52
2019-05-29T00:10:50.859Z,1002.57
2019-05-29T00:11:50.853Z,1002.60
2019-05-29T00:12:50.861Z,1002.59
2019-05-29T00:13:50.833Z,1002.60
2019-05-29T00:14:50.824Z,1002.61
2019-05-29T00:15:50.801Z,1002.63
2019-05-29T00:16:50.793Z,1002.61
2019-05-29T00:17:50.781Z,1002.68
2019-05-29T00:18:50.788Z,1002.65
2019-05-29T00:19:50.764Z,1002.64
2019-05-29T00:20:50.745Z,1002.60
2019-05-29T00:21:50.758Z,1002.63
2019-05-29T00:22:50.721Z,1002.66
2019-05-29T00:23:50.713Z,1002.64
2019-05-29T00:24:50.713Z,1002.68
2019-05-29T00:25:50.693Z,1002.71
2019-05-29T00:26:50.678Z,1002.67
2019-05-29T00:27:50.693Z,1002.68
2019-05-29T00:28:50.653Z,1002.72
2019-05-29T00:29:50.660Z,1002.74
2019-05-29T00:30:50.701Z,1002.80
2019-05-29T00:31:50.658Z,1002.80
2019-05-29T00:32:50.633Z,1002.76
2019-05-29T00:33:50.644Z,1002.86
2019-05-29T00:34:50.613Z,1002.84
2019-05-29T00:35:50.581Z,1002.90
2019-05-29T00:36:50.566Z,1002.92
2019-05-29T00:37:50.554Z,1002.98
2019-05-29T00:38:50.553Z,1002.92
2019-05-29T00:39:50.533Z,1002.95
2019-05-29T00:40:50.549Z,1002.97
2019-05-29T00:41:50.509Z,1002.98
2019-05-29T00:42:50.503Z,1002.93
2019-05-29T00:43:50.516Z,1002.96
2019-05-29T00:44:50.482Z,1002.96
2019-05-29T00:45:50.474Z,1002.88
2019-05-29T00:46:50.455Z,1002.91
2019-05-29T00:47:50.475Z,1002.89
2019-05-29T00:48:50.450Z,1002.88
2019-05-29T00:49:50.425Z,1002.87
2019-05-29T00:50:50.413Z,1002.90
2019-05-29T00:51:50.401Z,1002.89
2019-05-29T00:52:50.391Z,1002.95
2019-05-29T00:53:50.381Z,1002.96
2019-05-29T00:54:50.376Z,1002.99
2019-05-29T00:55:50.394Z,1003.00
2019-05-29T00:56:50.347Z,1003.02
2019-05-29T00:57:50.386Z,1003.04
2019-05-29T00:58:50.325Z,1003.04
2019-05-29T00:59:50.328Z,1003.01
2019-05-29T01:00:50.297Z,1003.07
2019-05-29T01:01:50.307Z,1003.08
2019-05-29T01:02:50.408Z,1003.05
2019-05-29T01:03:50.269Z,1003.11
2019-05-29T01:04:50.256Z,1003.10
2019-05-29T01:05:50.257Z,1003.17
2019-05-29T01:06:50.232Z,1003.11
2019-05-29T01:07:50.223Z,1003.15
2019-05-29T01:08:50.209Z,1003.17
2019-05-29T01:09:50.209Z,1003.20
2019-05-29T01:10:50.205Z,1003.17
2019-05-29T01:11:50.193Z,1003.20
2019-05-29T01:12:50.237Z,1003.25
2019-05-29T01:13:50.156Z,1003.21
2019-05-29T01:14:50.794Z,1003.26
2019-05-29T01:15:50.141Z,1003.21
2019-05-29T01:16:50.142Z,1003.28
2019-05-29T01:17:50.121Z,1003.30
2019-05-29T01:18:50.102Z,1003.32
2019-05-29T01:19:50.089Z,1003.34
2019-05-29T01:20:50.076Z,1003.31
2019-05-29T01:21:50.071Z,1003.33
2019-05-29T01:22:50.065Z,1003.33
2019-05-29T01:23:50.061Z,1003.34
2019-05-29T01:24:50.044Z,1003.38
2019-05-29T01:25:50.028Z,1003.40
2019-05-29T01:26:50.016Z,1003.40
2019-05-29T01:27:50.003Z,1003.46
2019-05-29T01:28:49.995Z,1003.44
2019-05-29T01:29:50.012Z,1003.43
2019-05-29T01:30:51.637Z,1003.43
2019-05-29T01:31:49.952Z,1003.45
2019-05-29T01:32:49.962Z,1003.46
2019-05-29T01:33:49.934Z,1003.45
2019-05-29T01:34:49.922Z,1003.47
2019-05-29T01:35:49.949Z,1003.51
2019-05-29T01:36:49.896Z,1003.53
2019-05-29T01:37:49.885Z,1003.54
2019-05-29T01:38:49.872Z,1003.53
2019-05-29T01:39:49.869Z,1003.54
2019-05-29T01:40:49.869Z,1003.52
2019-05-29T01:41:49.885Z,1003.52
2019-05-29T01:42:50.227Z,1003.57
2019-05-29T01:43:49.829Z,1003.56
2019-05-29T01:45:03.841Z,1003.51
2019-05-29T01:45:50.813Z,1003.51
2019-05-29T01:46:49.785Z,1003.51
2019-05-29T01:47:49.788Z,1003.53
2019-05-29T01:48:49.817Z,1003.54
2019-05-29T01:49:49.758Z,1003.56
2019-05-29T01:50:49.746Z,1003.56
2019-05-29T01:51:49.733Z,1003.62
2019-05-29T01:52:49.734Z,1003.61
2019-05-29T01:53:49.713Z,1003.63
2019-05-29T01:54:49.701Z,1003.59
2019-05-29T01:55:49.704Z,1003.68
2019-05-29T01:56:49.682Z,1003.65
2019-05-29T01:57:49.702Z,1003.72
2019-05-29T01:58:49.654Z,1003.75
2019-05-29T01:59:49.644Z,1003.78
2019-05-29T02:00:49.633Z,1003.78
2019-05-29T02:01:49.621Z,1003.76
2019-05-29T02:02:49.653Z,1003.77
2019-05-29T02:03:49.601Z,1003.80
2019-05-29T02:04:49.587Z,1003.76
2019-05-29T02:05:49.577Z,1003.79
2019-05-29T02:06:49.610Z,1003.79
2019-05-29T02:07:49.577Z,1003.84
2019-05-29T02:08:49.578Z,1003.83
2019-05-29T02:09:49.533Z,1003.85
2019-05-29T02:10:49.522Z,1003.84
2019-05-29T02:11:49.513Z,1003.91
2019-05-29T02:12:49.501Z,1003.91
2019-05-29T02:13:49.509Z,1003.89
2019-05-29T02:14:49.521Z,1003.88
2019-05-29T02:15:49.469Z,1003.86
2019-05-29T02:16:49.458Z,1003.87
2019-05-29T02:17:49.441Z,1003.85
2019-05-29T02:18:49.433Z,1003.95
2019-05-29T02:19:49.428Z,1003.87
2019-05-29T02:20:49.440Z,1003.94
2019-05-29T02:21:49.405Z,1003.95
2019-05-29T02:22:49.393Z,1003.92
2019-05-29T02:23:49.377Z,1003.96
2019-05-29T02:24:49.393Z,1003.97
2019-05-29T02:25:49.353Z,1003.99
2019-05-29T02:26:49.347Z,1004.00
2019-05-29T02:27:49.373Z,1003.97
2019-05-29T02:28:49.337Z,1004.00
2019-05-29T02:29:49.309Z,1004.01
2019-05-29T02:30:49.309Z,1004.05
2019-05-29T02:31:49.297Z,1004.01
2019-05-29T02:32:49.298Z,1004.05
2019-05-29T02:33:49.261Z,1004.08
2019-05-29T02:34:49.270Z,1004.06
2019-05-29T02:35:49.266Z,1004.05
2019-05-29T02:36:49.263Z,1004.02
2019-05-29T02:37:49.221Z,1004.03
2019-05-29T02:38:49.229Z,1004.05
2019-05-29T02:39:49.197Z,1004.05
2019-05-29T02:40:49.189Z,1004.07
2019-05-29T02:41:49.182Z,1004.03
2019-05-29T02:42:49.177Z,1004.07
2019-05-29T02:43:49.202Z,1004.09
2019-05-29T02:44:49.145Z,1004.11
2019-05-29T02:45:54.417Z,1004.11
2019-05-29T02:46:50.118Z,1004.14
2019-05-29T02:47:49.133Z,1004.17
2019-05-29T02:48:49.101Z,1004.16
2019-05-29T02:49:49.089Z,1004.20
2019-05-29T02:50:49.108Z,1004.23
2019-05-29T02:51:49.067Z,1004.21
2019-05-29T02:52:49.060Z,1004.21
2019-05-29T02:53:49.063Z,1004.25
2019-05-29T02:54:49.033Z,1004.24
2019-05-29T02:55:49.025Z,1004.24
2019-05-29T02:56:49.034Z,1004.22
2019-05-29T02:57:49.010Z,1004.24
2019-05-29T02:58:49.019Z,1004.24
2019-05-29T02:59:48.976Z,1004.24
2019-05-29T03:00:48.967Z,1004.20
2019-05-29T03:01:48.958Z,1004.24
2019-05-29T03:02:48.981Z,1004.26
2019-05-29T03:03:48.935Z,1004.27
2019-05-29T03:04:48.934Z,1004.29
2019-05-29T03:05:48.922Z,1004.30
2019-05-29T03:06:48.897Z,1004.30
2019-05-29T03:07:48.899Z,1004.29
2019-05-29T03:08:48.911Z,1004.26
2019-05-29T03:09:48.862Z,1004.29
2019-05-29T03:10:48.865Z,1004.25
2019-05-29T03:11:48.860Z,1004.30
2019-05-29T03:12:48.834Z,1004.33
2019-05-29T03:13:48.823Z,1004.33
2019-05-29T03:14:48.845Z,1004.36
2019-05-29T03:16:05.687Z,1004.39
2019-05-29T03:16:49.791Z,1004.42
2019-05-29T03:17:48.778Z,1004.40
2019-05-29T03:18:48.765Z,1004.39
2019-05-29T03:19:48.750Z,1004.44
2019-05-29T03:20:48.777Z,1004.41
2019-05-29T03:21:48.770Z,1004.39
2019-05-29T03:22:48.721Z,1004.47
2019-05-29T03:23:48.713Z,1004.43
2019-05-29T03:24:48.694Z,1004.43
2019-05-29T03:25:48.700Z,1004.43
2019-05-29T03:26:48.686Z,1004.43
2019-05-29T03:27:48.706Z,1004.41
2019-05-29T03:28:48.657Z,1004.45
2019-05-29T03:29:48.641Z,1004.49
2019-05-29T03:30:48.643Z,1004.50
2019-05-29T03:31:49.017Z,1004.52
2019-05-29T03:32:49.148Z,1004.56
2019-05-29T03:33:50.195Z,1004.61
2019-05-29T03:34:48.658Z,1004.58
2019-05-29T03:35:48.930Z,1004.63
2019-05-29T03:36:49.179Z,1004.60
2019-05-29T03:37:48.576Z,1004.60
2019-05-29T03:38:48.544Z,1004.61
2019-05-29T03:39:48.566Z,1004.63
2019-05-29T03:40:48.517Z,1004.66
2019-05-29T03:41:48.513Z,1004.66
2019-05-29T03:42:48.517Z,1004.63
2019-05-29T03:43:48.483Z,1004.71
2019-05-29T03:44:48.475Z,1004.72
2019-05-29T03:45:48.484Z,1004.65
2019-05-29T03:46:48.464Z,1004.72
2019-05-29T03:47:48.451Z,1004.66
2019-05-29T03:48:48.461Z,1004.74
2019-05-29T03:49:48.423Z,1004.70
2019-05-29T03:50:48.418Z,1004.69
2019-05-29T03:51:48.397Z,1004.69
2019-05-29T03:52:48.398Z,1004.72
2019-05-29T03:53:48.393Z,1004.78
2019-05-29T03:54:48.386Z,1004.80
2019-05-29T03:55:48.353Z,1004.79
2019-05-29T03:56:48.350Z,1004.79
2019-05-29T03:57:48.334Z,1004.83
2019-05-29T03:58:48.322Z,1004.82
2019-05-29T03:59:48.330Z,1004.79
2019-05-29T04:00:48.998Z,1004.78
2019-05-29T04:01:48.286Z,1004.78
2019-05-29T04:02:48.278Z,1004.77
2019-05-29T04:03:48.281Z,1004.82
2019-05-29T04:04:48.250Z,1004.79
2019-05-29T04:05:48.256Z,1004.81
2019-05-29T04:06:48.258Z,1004.85
2019-05-29T04:07:48.222Z,1004.84
2019-05-29T04:08:48.204Z,1004.89
2019-05-29T04:09:48.208Z,1004.89
2019-05-29T04:10:48.182Z,1004.88
2019-05-29T04:11:48.226Z,1004.87
2019-05-29T04:12:48.182Z,1004.91
2019-05-29T04:13:48.156Z,1004.90
2019-05-29T04:14:48.167Z,1004.95
2019-05-29T04:15:48.130Z,1004.94
2019-05-29T04:16:59.275Z,1004.97
2019-05-29T04:17:49.126Z,1004.94
2019-05-29T04:18:48.113Z,1005.02
2019-05-29T04:19:48.089Z,1005.00
2019-05-29T04:20:48.106Z,1005.03
2019-05-29T04:21:48.065Z,1005.03
2019-05-29T04:22:48.097Z,1005.09
2019-05-29T04:23:48.052Z,1005.08
2019-05-29T04:24:48.034Z,1005.11
2019-05-29T04:25:48.089Z,1005.10
2019-05-29T04:26:48.010Z,1005.12
2019-05-29T04:27:47.996Z,1005.13
2019-05-29T04:28:47.994Z,1005.15
2019-05-29T04:29:47.988Z,1005.15
2019-05-29T04:30:47.961Z,1005.17
2019-05-29T04:31:47.958Z,1005.17
2019-05-29T04:32:47.940Z,1005.25
2019-05-29T04:33:47.933Z,1005.26
2019-05-29T04:34:47.933Z,1005.26
2019-05-29T04:35:47.925Z,1005.23
2019-05-29T04:36:47.894Z,1005.26
2019-05-29T04:37:47.902Z,1005.32
2019-05-29T04:38:47.941Z,1005.30
2019-05-29T04:39:47.863Z,1005.32
2019-05-29T04:40:47.855Z,1005.34
2019-05-29T04:41:47.845Z,1005.40
2019-05-29T04:42:47.830Z,1005.39
2019-05-29T04:43:47.864Z,1005.40
2019-05-29T04:44:47.810Z,1005.36
2019-05-29T04:45:47.852Z,1005.37
2019-05-29T04:46:47.792Z,1005.39
2019-05-29T04:47:47.780Z,1005.39
2019-05-29T04:48:47.802Z,1005.38
2019-05-29T04:49:47.749Z,1005.41
2019-05-29T04:50:47.741Z,1005.46
2019-05-29T04:51:47.736Z,1005.45
2019-05-29T04:52:47.750Z,1005.45
2019-05-29T04:53:47.710Z,1005.52
2019-05-29T04:54:47.710Z,1005.55
2019-05-29T04:55:47.685Z,1005.50
2019-05-29T04:56:47.676Z,1005.54
2019-05-29T04:57:50.648Z,1005.58
2019-05-29T04:58:47.653Z,1005.59
2019-05-29T04:59:47.641Z,1005.56
2019-05-29T05:00:58.704Z,1005.62
2019-05-29T05:01:48.632Z,1005.62
2019-05-29T05:02:47.612Z,1005.66
2019-05-29T05:03:47.609Z,1005.65
2019-05-29T05:04:47.585Z,1005.70
2019-05-29T05:05:47.593Z,1005.67
2019-05-29T05:06:47.556Z,1005.68
2019-05-29T05:07:47.564Z,1005.73
2019-05-29T05:08:47.542Z,1005.73
2019-05-29T05:09:47.578Z,1005.73
2019-05-29T05:10:47.545Z,1005.72
2019-05-29T05:11:47.517Z,1005.77
2019-05-29T05:12:47.516Z,1005.78
2019-05-29T05:13:47.484Z,1005.80
2019-05-29T05:14:47.472Z,1005.78
2019-05-29T05:15:47.488Z,1005.84
2019-05-29T05:16:47.464Z,1005.81
2019-05-29T05:17:47.449Z,1005.78
2019-05-29T05:18:47.426Z,1005.83
2019-05-29T05:19:47.453Z,1005.90
2019-05-29T05:20:47.404Z,1005.88
2019-05-29T05:21:47.397Z,1005.84
2019-05-29T05:22:47.406Z,1005.89
2019-05-29T05:23:47.372Z,1005.88
2019-05-29T05:24:47.365Z,1005.87
2019-05-29T05:25:47.359Z,1005.84
2019-05-29T05:26:47.344Z,1005.85
2019-05-29T05:27:47.384Z,1005.91
2019-05-29T05:28:47.501Z,1005.89
2019-05-29T05:29:47.304Z,1005.91
2019-05-29T05:30:47.292Z,1005.93
2019-05-29T05:31:47.285Z,1005.97
2019-05-29T05:32:47.278Z,1005.96
2019-05-29T05:33:47.281Z,1006.01
2019-05-29T05:34:47.252Z,1006.00
2019-05-29T05:35:47.240Z,1005.99
2019-05-29T05:36:47.232Z,1006.05
2019-05-29T05:37:47.250Z,1006.04
2019-05-29T05:38:47.211Z,1006.08
2019-05-29T05:39:47.237Z,1006.03
2019-05-29T05:40:47.196Z,1006.01
2019-05-29T05:41:47.175Z,1006.04
2019-05-29T05:42:47.169Z,1006.02
2019-05-29T05:43:47.164Z,1006.05
2019-05-29T05:44:47.188Z,1006.04
2019-05-29T05:45:47.140Z,1006.08
2019-05-29T05:46:47.126Z,1006.11
2019-05-29T05:47:56.967Z,1006.15
2019-05-29T05:48:48.104Z,1006.13
2019-05-29T05:49:47.084Z,1006.14
2019-05-29T05:50:47.077Z,1006.17
2019-05-29T05:51:47.060Z,1006.22
2019-05-29T05:52:47.057Z,1006.25
2019-05-29T05:53:47.040Z,1006.25
2019-05-29T05:54:47.052Z,1006.24
2019-05-29T05:55:47.023Z,1006.23
2019-05-29T05:56:47.009Z,1006.24
2019-05-29T05:57:47.001Z,1006.27
2019-05-29T05:58:46.984Z,1006.30
2019-05-29T05:59:47.017Z,1006.25
2019-05-29T06:00:46.977Z,1006.30
2019-05-29T06:01:46.949Z,1006.30
2019-05-29T06:02:46.945Z,1006.31
2019-05-29T06:03:46.932Z,1006.38
2019-05-29T06:04:46.920Z,1006.34
2019-05-29T06:05:46.979Z,1006.39
2019-05-29T06:06:46.896Z,1006.39
2019-05-29T06:07:46.888Z,1006.44
2019-05-29T06:08:46.873Z,1006.42
2019-05-29T06:09:46.869Z,1006.44
2019-05-29T06:10:46.846Z,1006.49
2019-05-29T06:11:46.867Z,1006.46
2019-05-29T06:12:46.841Z,1006.45
2019-05-29T06:13:46.828Z,1006.46
2019-05-29T06:14:46.812Z,1006.51
2019-05-29T06:15:46.794Z,1006.45
2019-05-29T06:16:46.798Z,1006.41
2019-05-29T06:18:04.582Z,1006.40
2019-05-29T06:18:47.764Z,1006.37
2019-05-29T06:19:46.750Z,1006.38
2019-05-29T06:20:46.792Z,1006.37
2019-05-29T06:21:46.724Z,1006.42
2019-05-29T06:22:46.750Z,1006.40
2019-05-29T06:23:46.710Z,1006.38
2019-05-29T06:24:46.738Z,1006.38
2019-05-29T06:25:46.692Z,1006.38
2019-05-29T06:26:46.672Z,1006.41
2019-05-29T06:27:46.660Z,1006.41
2019-05-29T06:28:46.681Z,1006.39
2019-05-29T06:29:46.636Z,1006.40
2019-05-29T06:30:46.671Z,1006.38
2019-05-29T06:31:46.621Z,1006.41
2019-05-29T06:32:46.657Z,1006.41
2019-05-29T06:33:46.593Z,1006.39
2019-05-29T06:34:46.604Z,1006.40
2019-05-29T06:35:46.577Z,1006.40
2019-05-29T06:36:48.300Z,1006.43
2019-05-29T06:37:46.600Z,1006.49
2019-05-29T06:38:46.532Z,1006.43
2019-05-29T06:39:46.537Z,1006.50
2019-05-29T06:40:46.525Z,1006.47
2019-05-29T06:41:46.528Z,1006.51
2019-05-29T06:42:46.504Z,1006.49
2019-05-29T06:43:46.495Z,1006.53
2019-05-29T06:44:48.989Z,1006.49
2019-05-29T06:45:46.482Z,1006.53
2019-05-29T06:46:46.469Z,1006.55
2019-05-29T06:47:46.448Z,1006.56
2019-05-29T06:48:58.809Z,1006.59
2019-05-29T06:49:47.412Z,1006.56
2019-05-29T06:50:47.532Z,1006.63
2019-05-29T06:51:47.462Z,1006.65
2019-05-29T06:52:47.673Z,1006.59
2019-05-29T06:53:46.368Z,1006.64
2019-05-29T06:54:46.373Z,1006.65
2019-05-29T06:55:46.345Z,1006.70
2019-05-29T06:56:46.340Z,1006.69
2019-05-29T06:57:46.345Z,1006.70
2019-05-29T06:58:46.313Z,1006.70
2019-05-29T06:59:46.317Z,1006.70
2019-05-29T07:00:46.850Z,1006.72
2019-05-29T07:01:47.595Z,1006.69
2019-05-29T07:02:46.857Z,1006.74
2019-05-29T07:03:46.268Z,1006.73
2019-05-29T07:04:46.611Z,1006.81
2019-05-29T07:05:50.901Z,1006.84
2019-05-29T07:06:47.282Z,1006.85
2019-05-29T07:07:46.610Z,1006.84
2019-05-29T07:08:48.260Z,1006.91
2019-05-29T07:09:47.188Z,1006.87
2019-05-29T07:10:46.185Z,1006.90
2019-05-29T07:11:47.457Z,1006.91
2019-05-29T07:12:46.468Z,1006.93
2019-05-29T07:13:49.628Z,1006.94
2019-05-29T07:14:46.629Z,1006.94
2019-05-29T07:15:47.473Z,1006.99
2019-05-29T07:16:55.731Z,1006.98
2019-05-29T07:17:47.104Z,1006.94
2019-05-29T07:19:22.898Z,1006.91
2019-05-29T07:19:58.860Z,1006.97
2019-05-29T07:20:47.112Z,1006.96
2019-05-29T07:21:47.199Z,1006.98
2019-05-29T07:22:47.104Z,1006.96
2019-05-29T07:23:47.902Z,1006.97
2019-05-29T07:24:47.006Z,1006.94
2019-05-29T07:25:47.314Z,1007.01
2019-05-29T07:26:47.179Z,1007.02
2019-05-29T07:27:47.021Z,1007.06
2019-05-29T07:29:03.433Z,1007.10
2019-05-29T07:29:47.434Z,1007.07
2019-05-29T07:30:54.478Z,1007.06
2019-05-29T07:31:47.323Z,1007.12
2019-05-29T07:32:56.255Z,1007.11
2019-05-29T07:33:47.405Z,1007.10
2019-05-29T07:34:58.982Z,1007.09
2019-05-29T07:35:47.798Z,1007.15
2019-05-29T07:36:46.093Z,1007.12
2019-05-29T07:37:46.074Z,1007.13
2019-05-29T07:38:56.054Z,1007.13
2019-05-29T07:39:47.767Z,1007.11
2019-05-29T07:40:48.198Z,1007.18
2019-05-29T07:41:45.848Z,1007.14
2019-05-29T07:42:53.388Z,1007.16
2019-05-29T07:43:47.988Z,1007.19
2019-05-29T07:44:46.301Z,1007.19
2019-05-29T07:45:46.108Z,1007.23
2019-05-29T07:46:47.078Z,1007.17
2019-05-29T07:47:46.744Z,1007.22
2019-05-29T07:48:47.932Z,1007.26
2019-05-29T07:49:47.161Z,1007.25
2019-05-29T07:50:46.265Z,1007.29
2019-05-29T07:51:46.746Z,1007.23
2019-05-29T07:52:47.115Z,1007.26
2019-05-29T07:53:46.445Z,1007.25
2019-05-29T07:54:45.919Z,1007.24
2019-05-29T07:55:46.761Z,1007.29
2019-05-29T07:56:46.599Z,1007.32
2019-05-29T07:57:46.940Z,1007.32
2019-05-29T07:58:57.061Z,1007.35
2019-05-29T07:59:46.764Z,1007.31
2019-05-29T08:01:06.935Z,1007.34
2019-05-29T08:01:47.211Z,1007.34
2019-05-29T08:02:45.600Z,1007.32
2019-05-29T08:03:45.600Z,1007.31
2019-05-29T08:04:45.583Z,1007.35
2019-05-29T08:05:49.226Z,1007.37
2019-05-29T08:06:52.335Z,1007.37
2019-05-29T08:07:47.552Z,1007.36
2019-05-29T08:08:45.544Z,1007.36
2019-05-29T08:09:45.689Z,1007.37
2019-05-29T08:10:45.607Z,1007.39
2019-05-29T08:11:45.669Z,1007.39
2019-05-29T08:12:50.462Z,1007.39
2019-05-29T08:13:47.677Z,1007.44
2019-05-29T08:14:45.813Z,1007.39
2019-05-29T08:15:57.591Z,1007.44
2019-05-29T08:16:46.441Z,1007.45
2019-05-29T08:17:46.223Z,1007.43
2019-05-29T08:18:48.798Z,1007.42
2019-05-29T08:20:00.638Z,1007.40
2019-05-29T08:20:46.459Z,1007.37
2019-05-29T08:21:46.495Z,1007.39
2019-05-29T08:22:46.384Z,1007.42
2019-05-29T08:23:46.411Z,1007.39
2019-05-29T08:24:46.279Z,1007.41
2019-05-29T08:25:45.422Z,1007.38
2019-05-29T08:26:46.714Z,1007.37
2019-05-29T08:27:46.584Z,1007.41
2019-05-29T08:28:46.681Z,1007.44
2019-05-29T08:29:45.296Z,1007.47
2019-05-29T08:30:50.379Z,1007.43
2019-05-29T08:31:46.849Z,1007.44
2019-05-29T08:32:45.444Z,1007.43
2019-05-29T08:33:45.248Z,1007.47
2019-05-29T08:34:45.238Z,1007.43
2019-05-29T08:35:45.410Z,1007.47
2019-05-29T08:37:00.829Z,1007.48
2019-05-29T08:37:47.040Z,1007.47
2019-05-29T08:38:45.781Z,1007.48
2019-05-29T08:39:45.452Z,1007.49
2019-05-29T08:40:45.190Z,1007.48
2019-05-29T08:42:01.024Z,1007.52
2019-05-29T08:42:47.293Z,1007.47
2019-05-29T08:43:45.709Z,1007.46
2019-05-29T08:44:45.436Z,1007.51
2019-05-29T08:45:45.511Z,1007.55
2019-05-29T08:47:02.830Z,1007.55
2019-05-29T08:47:46.088Z,1007.47
2019-05-29T08:48:45.877Z,1007.50
2019-05-29T08:49:48.025Z,1007.47
2019-05-29T08:50:46.072Z,1007.51
2019-05-29T08:51:45.961Z,1007.49
2019-05-29T08:52:45.948Z,1007.48
2019-05-29T08:53:46.335Z,1007.54
2019-05-29T08:54:46.000Z,1007.55
2019-05-29T08:55:46.065Z,1007.49
2019-05-29T08:56:46.255Z,1007.59
2019-05-29T08:57:46.224Z,1007.56
2019-05-29T08:58:46.250Z,1007.58
2019-05-29T08:59:44.960Z,1007.56
2019-05-29T09:00:49.818Z,1007.63
2019-05-29T09:01:47.756Z,1007.57
2019-05-29T09:02:44.942Z,1007.63
2019-05-29T09:03:44.977Z,1007.55
2019-05-29T09:04:44.905Z,1007.57
2019-05-29T09:05:44.913Z,1007.54
2019-05-29T09:06:44.900Z,1007.65
2019-05-29T09:07:46.401Z,1007.58
2019-05-29T09:08:46.690Z,1007.57
2019-05-29T09:09:44.987Z,1007.59
2019-05-29T09:10:45.358Z,1007.60
2019-05-29T09:11:45.273Z,1007.62
2019-05-29T09:12:47.152Z,1007.67
2019-05-29T09:13:45.802Z,1007.59
2019-05-29T09:14:44.820Z,1007.62
2019-05-29T09:15:44.872Z,1007.64
2019-05-29T09:16:44.792Z,1007.66
2019-05-29T09:17:44.889Z,1007.66
2019-05-29T09:18:44.753Z,1007.65
2019-05-29T09:19:44.789Z,1007.63
2019-05-29T09:21:01.766Z,1007.63
2019-05-29T09:21:45.712Z,1007.61
2019-05-29T09:22:44.701Z,1007.60
2019-05-29T09:23:44.712Z,1007.58
2019-05-29T09:24:44.708Z,1007.62
2019-05-29T09:25:44.668Z,1007.57
2019-05-29T09:26:46.559Z,1007.59
2019-05-29T09:27:44.644Z,1007.55
2019-05-29T09:28:44.640Z,1007.57
2019-05-29T09:29:44.632Z,1007.57
2019-05-29T09:30:44.616Z,1007.59
2019-05-29T09:31:44.613Z,1007.61
2019-05-29T09:32:51.015Z,1007.61
2019-05-29T09:33:45.588Z,1007.62
2019-05-29T09:34:47.605Z,1007.59
2019-05-29T09:35:44.568Z,1007.60
2019-05-29T09:36:44.559Z,1007.63
2019-05-29T09:37:44.540Z,1007.62
2019-05-29T09:38:44.533Z,1007.66
2019-05-29T09:39:44.519Z,1007.65
2019-05-29T09:40:44.513Z,1007.66
2019-05-29T09:41:44.488Z,1007.65
2019-05-29T09:42:44.486Z,1007.71
2019-05-29T09:43:58.091Z,1007.66
2019-05-29T09:44:45.461Z,1007.62
2019-05-29T09:45:44.456Z,1007.58
2019-05-29T09:46:44.437Z,1007.58
2019-05-29T09:47:44.433Z,1007.59
2019-05-29T09:48:49.749Z,1007.62
2019-05-29T09:49:45.415Z,1007.62
2019-05-29T09:50:50.059Z,1007.61
2019-05-29T09:51:45.424Z,1007.62
2019-05-29T09:52:44.372Z,1007.67
2019-05-29T09:53:44.395Z,1007.69
2019-05-29T09:54:44.360Z,1007.67
2019-05-29T09:55:44.332Z,1007.71
2019-05-29T09:56:44.341Z,1007.71
2019-05-29T09:57:44.332Z,1007.72
2019-05-29T09:58:44.312Z,1007.74
2019-05-29T09:59:44.289Z,1007.77
2019-05-29T10:00:44.295Z,1007.75
2019-05-29T10:01:44.260Z,1007.77
2019-05-29T10:02:44.259Z,1007.75
2019-05-29T10:03:44.330Z,1007.78
2019-05-29T10:04:44.228Z,1007.70
2019-05-29T10:05:44.232Z,1007.75
2019-05-29T10:06:44.208Z,1007.74
2019-05-29T10:07:44.204Z,1007.66
2019-05-29T10:08:44.189Z,1007.71
2019-05-29T10:09:44.172Z,1007.71
2019-05-29T10:10:44.235Z,1007.68
2019-05-29T10:11:44.152Z,1007.72
2019-05-29T10:12:44.144Z,1007.77
2019-05-29T10:13:44.135Z,1007.81
2019-05-29T10:14:44.127Z,1007.79
2019-05-29T10:15:44.122Z,1007.85
2019-05-29T10:16:44.105Z,1007.78
2019-05-29T10:17:44.088Z,1007.82
2019-05-29T10:18:44.076Z,1007.80
2019-05-29T10:19:44.066Z,1007.81
2019-05-29T10:20:44.159Z,1007.83
2019-05-29T10:21:44.082Z,1007.85
2019-05-29T10:22:44.046Z,1007.82
2019-05-29T10:23:44.032Z,1007.84
2019-05-29T10:24:44.059Z,1007.81
2019-05-29T10:25:44.016Z,1007.82
2019-05-29T10:26:43.985Z,1007.76
2019-05-29T10:27:43.988Z,1007.83
2019-05-29T10:28:57.830Z,1007.80
2019-05-29T10:29:49.661Z,1007.81
2019-05-29T10:30:46.255Z,1007.82
2019-05-29T10:31:46.849Z,1007.89
2019-05-29T10:32:44.536Z,1007.82
2019-05-29T10:33:44.166Z,1007.77
2019-05-29T10:34:44.321Z,1007.87
2019-05-29T10:35:44.732Z,1007.85
2019-05-29T10:36:46.964Z,1007.83
2019-05-29T10:37:44.877Z,1007.90
2019-05-29T10:38:44.383Z,1007.82
2019-05-29T10:39:44.655Z,1007.81
2019-05-29T10:40:47.353Z,1007.90
2019-05-29T10:41:44.831Z,1007.87
2019-05-29T10:42:45.093Z,1007.91
2019-05-29T10:43:45.015Z,1007.87
2019-05-29T10:44:44.843Z,1007.89
2019-05-29T10:45:45.637Z,1007.85
2019-05-29T10:46:46.085Z,1007.89
2019-05-29T10:47:43.760Z,1007.87
2019-05-29T10:48:44.643Z,1007.81
2019-05-29T10:49:43.736Z,1007.81
2019-05-29T10:50:45.488Z,1007.83
2019-05-29T10:52:01.518Z,1007.84
2019-05-29T10:52:45.763Z,1007.85
2019-05-29T10:53:44.288Z,1007.80
2019-05-29T10:54:44.105Z,1007.86
2019-05-29T10:55:44.442Z,1007.80
2019-05-29T10:56:44.746Z,1007.78
2019-05-29T10:57:44.737Z,1007.81
2019-05-29T10:58:49.539Z,1007.75
2019-05-29T10:59:44.675Z,1007.79
2019-05-29T11:00:45.261Z,1007.78
2019-05-29T11:01:44.987Z,1007.75
2019-05-29T11:02:43.591Z,1007.76
2019-05-29T11:03:43.584Z,1007.72
2019-05-29T11:04:47.610Z,1007.69
2019-05-29T11:05:45.563Z,1007.72
2019-05-29T11:06:43.550Z,1007.78
2019-05-29T11:07:43.524Z,1007.77
2019-05-29T11:08:43.522Z,1007.81
2019-05-29T11:09:44.976Z,1007.79
2019-05-29T11:10:43.520Z,1007.80
2019-05-29T11:11:43.480Z,1007.82
2019-05-29T11:12:43.477Z,1007.77
2019-05-29T11:13:43.476Z,1007.79
2019-05-29T11:14:43.451Z,1007.78
2019-05-29T11:15:43.440Z,1007.81
2019-05-29T11:16:43.449Z,1007.79
2019-05-29T11:17:43.421Z,1007.79
2019-05-29T11:18:43.420Z,1007.76
2019-05-29T11:19:43.405Z,1007.77
2019-05-29T11:20:43.393Z,1007.79
2019-05-29T11:21:43.373Z,1007.77
2019-05-29T11:22:43.379Z,1007.79
2019-05-29T11:23:43.352Z,1007.78
2019-05-29T11:24:43.349Z,1007.78
2019-05-29T11:25:43.328Z,1007.75
2019-05-29T11:26:43.343Z,1007.74
2019-05-29T11:27:43.300Z,1007.73
2019-05-29T11:28:43.304Z,1007.70
2019-05-29T11:29:43.305Z,1007.75
2019-05-29T11:30:43.304Z,1007.74
2019-05-29T11:31:43.299Z,1007.74
2019-05-29T11:32:47.156Z,1007.75
2019-05-29T11:33:43.240Z,1007.71
2019-05-29T11:34:43.233Z,1007.69
2019-05-29T11:35:57.201Z,1007.66
2019-05-29T11:36:44.212Z,1007.70
2019-05-29T11:37:43.216Z,1007.68
2019-05-29T11:38:43.200Z,1007.68
2019-05-29T11:39:43.172Z,1007.76
2019-05-29T11:40:43.540Z,1007.82
2019-05-29T11:41:43.152Z,1007.79
2019-05-29T11:42:43.156Z,1007.74
2019-05-29T11:43:43.128Z,1007.76
2019-05-29T11:44:43.145Z,1007.73
2019-05-29T11:45:43.111Z,1007.74
2019-05-29T11:46:43.110Z,1007.76
2019-05-29T11:47:43.102Z,1007.69
2019-05-29T11:48:43.074Z,1007.71
2019-05-29T11:49:43.062Z,1007.71
2019-05-29T11:50:43.076Z,1007.69
2019-05-29T11:51:44.394Z,1007.74
2019-05-29T11:52:43.704Z,1007.71
2019-05-29T11:53:43.032Z,1007.72
2019-05-29T11:54:43.009Z,1007.75
2019-05-29T11:55:42.999Z,1007.70
2019-05-29T11:56:43.000Z,1007.70
2019-05-29T11:57:42.973Z,1007.74
2019-05-29T11:58:42.972Z,1007.71
2019-05-29T11:59:42.948Z,1007.71
2019-05-29T12:00:42.952Z,1007.69
2019-05-29T12:01:50.435Z,1007.70
2019-05-29T12:02:43.929Z,1007.66
2019-05-29T12:04:08.209Z,1007.62
2019-05-29T12:04:43.916Z,1007.63
2019-05-29T12:05:42.915Z,1007.61